Achim Manz-Bothe 1:00:00 row

14,783

Meters

1:00:00.0

Time

2:01.7

Pace

954

Calories

135

Heart Rate

Average Watts194
Calories Per Hour954
Stroke Rate24

December 20, 2018 16:14:00

Workout
RowErg

Workout Type
Fixed Time

Weight Class
Hwt

Verified
Yes

Ranked
No

Entered
Concept2 Utility

Splits

Time Meters Pace Watts Cal/Hr Cal S/M
1:00:00.0 14,783 2:01.7 194 954 954 24 135
2:00.0 480 2:05.0 179 900 30 23 118
4:00.0 483 2:04.2 183 900 30 25 121
6:00.0 484 2:03.9 184 930 31 24 122
8:00.0 488 2:02.9 188 930 31 25 126
10:00.0 488 2:02.9 188 930 31 24 129
12:00.0 490 2:02.4 191 930 31 25 129
14:00.0 491 2:02.1 192 960 32 24 126
16:00.0 491 2:02.1 192 960 32 24 133
18:00.0 492 2:01.9 193 960 32 25 132
20:00.0 492 2:01.9 193 960 32 24 133
22:00.0 493 2:01.7 194 960 32 25 132
24:00.0 492 2:01.9 193 960 32 25 134
26:00.0 491 2:02.1 192 960 32 24 134
28:00.0 493 2:01.7 194 960 32 25 136
30:00.0 490 2:02.4 191 930 31 24 134
32:00.0 492 2:01.9 193 960 32 24 137
34:00.0 492 2:01.9 193 960 32 24 137
36:00.0 496 2:00.9 198 960 32 24 137
38:00.0 495 2:01.2 197 960 32 24 139
40:00.0 496 2:00.9 198 960 32 24 139
42:00.0 497 2:00.7 199 960 32 24 140
44:00.0 498 2:00.4 200 960 32 24 142
46:00.0 496 2:00.9 198 960 32 25 142
48:00.0 497 2:00.7 199 960 32 24 144
50:00.0 498 2:00.4 200 960 32 24 141
52:00.0 497 2:00.7 199 960 32 25 144
54:00.0 499 2:00.2 201 990 33 24 145
56:00.0 499 2:00.2 201 990 33 24 143
58:00.0 499 2:00.2 201 990 33 25 144
1:00:00.0 493 2:01.7 194 960 32 24 143